sensor_id;sensor_type;location;lat;lon;timestamp;temperature;humidity
21508;DHT22;10915;54.352;9.074;2023-04-24T00:01:42;12.10;99.90
21508;DHT22;10915;54.352;9.074;2023-04-24T00:04:08;12.10;99.90
21508;DHT22;10915;54.352;9.074;2023-04-24T00:06:38;12.10;99.90
21508;DHT22;10915;54.352;9.074;2023-04-24T00:09:08;12.10;99.90
21508;DHT22;10915;54.352;9.074;2023-04-24T00:11:36;12.10;99.90
21508;DHT22;10915;54.352;9.074;2023-04-24T00:14:01;12.10;99.90
21508;DHT22;10915;54.352;9.074;2023-04-24T00:16:27;12.10;99.90
21508;DHT22;10915;54.352;9.074;2023-04-24T00:18:53;12.10;99.90
21508;DHT22;10915;54.352;9.074;2023-04-24T00:21:19;12.10;99.90
21508;DHT22;10915;54.352;9.074;2023-04-24T00:23:45;12.10;99.90
21508;DHT22;10915;54.352;9.074;2023-04-24T00:26:11;12.00;99.90
21508;DHT22;10915;54.352;9.074;2023-04-24T00:28:36;12.00;99.90
21508;DHT22;10915;54.352;9.074;2023-04-24T00:31:02;12.00;99.90
21508;DHT22;10915;54.352;9.074;2023-04-24T00:33:28;12.00;99.90
21508;DHT22;10915;54.352;9.074;2023-04-24T00:35:54;11.90;99.90
21508;DHT22;10915;54.352;9.074;2023-04-24T00:38:19;11.90;99.90
21508;DHT22;10915;54.352;9.074;2023-04-24T00:40:45;11.90;99.90
21508;DHT22;10915;54.352;9.074;2023-04-24T00:43:11;11.80;99.90
21508;DHT22;10915;54.352;9.074;2023-04-24T00:45:37;11.80;99.90
21508;DHT22;10915;54.352;9.074;2023-04-24T00:48:03;11.90;99.90
21508;DHT22;10915;54.352;9.074;2023-04-24T00:50:30;11.80;99.90
21508;DHT22;10915;54.352;9.074;2023-04-24T00:52:55;11.80;99.90
21508;DHT22;10915;54.352;9.074;2023-04-24T00:55:21;11.80;99.90
21508;DHT22;10915;54.352;9.074;2023-04-24T00:57:47;11.80;99.90
21508;DHT22;10915;54.352;9.074;2023-04-24T01:00:14;11.80;99.90
21508;DHT22;10915;54.352;9.074;2023-04-24T01:02:43;11.70;99.90
21508;DHT22;10915;54.352;9.074;2023-04-24T01:05:11;11.80;99.90
21508;DHT22;10915;54.352;9.074;2023-04-24T01:07:39;11.80;99.90
21508;DHT22;10915;54.352;9.074;2023-04-24T01:10:07;11.70;99.90
21508;DHT22;10915;54.352;9.074;2023-04-24T01:12:33;11.70;99.90
21508;DHT22;10915;54.352;9.074;2023-04-24T01:14:59;11.60;99.90
21508;DHT22;10915;54.352;9.074;2023-04-24T01:17:25;11.60;99.90
21508;DHT22;10915;54.352;9.074;2023-04-24T01:19:51;11.60;99.90
21508;DHT22;10915;54.352;9.074;2023-04-24T01:22:19;11.60;99.90
21508;DHT22;10915;54.352;9.074;2023-04-24T01:24:46;11.60;99.90
21508;DHT22;10915;54.352;9.074;2023-04-24T01:27:12;11.50;99.90
21508;DHT22;10915;54.352;9.074;2023-04-24T01:29:38;11.50;99.90
21508;DHT22;10915;54.352;9.074;2023-04-24T01:32:05;11.50;99.90
21508;DHT22;10915;54.352;9.074;2023-04-24T01:34:32;11.50;99.90
21508;DHT22;10915;54.352;9.074;2023-04-24T01:36:58;11.40;99.90
21508;DHT22;10915;54.352;9.074;2023-04-24T01:39:23;11.50;99.90
21508;DHT22;10915;54.352;9.074;2023-04-24T01:41:51;11.50;99.90
21508;DHT22;10915;54.352;9.074;2023-04-24T01:44:18;11.40;99.90
21508;DHT22;10915;54.352;9.074;2023-04-24T01:46:44;11.40;99.90
21508;DHT22;10915;54.352;9.074;2023-04-24T01:49:09;11.30;99.90
21508;DHT22;10915;54.352;9.074;2023-04-24T01:51:35;11.30;99.90
21508;DHT22;10915;54.352;9.074;2023-04-24T01:54:01;11.20;99.90
21508;DHT22;10915;54.352;9.074;2023-04-24T01:56:29;11.20;99.90
21508;DHT22;10915;54.352;9.074;2023-04-24T01:58:55;11.30;99.90
21508;DHT22;10915;54.352;9.074;2023-04-24T02:01:22;11.30;99.90
21508;DHT22;10915;54.352;9.074;2023-04-24T02:03:48;11.30;99.90
21508;DHT22;10915;54.352;9.074;2023-04-24T02:06:14;11.30;99.90
21508;DHT22;10915;54.352;9.074;2023-04-24T02:08:39;11.40;99.90
21508;DHT22;10915;54.352;9.074;2023-04-24T02:11:05;11.40;99.90
21508;DHT22;10915;54.352;9.074;2023-04-24T02:13:31;11.40;99.90
21508;DHT22;10915;54.352;9.074;2023-04-24T02:15:58;11.50;99.90
21508;DHT22;10915;54.352;9.074;2023-04-24T02:18:24;11.50;99.90
21508;DHT22;10915;54.352;9.074;2023-04-24T02:20:50;11.50;99.90
21508;DHT22;10915;54.352;9.074;2023-04-24T02:23:15;11.50;99.90
21508;DHT22;10915;54.352;9.074;2023-04-24T02:25:41;11.50;99.90
21508;DHT22;10915;54.352;9.074;2023-04-24T02:28:06;11.50;99.90
21508;DHT22;10915;54.352;9.074;2023-04-24T02:30:32;11.50;99.90
21508;DHT22;10915;54.352;9.074;2023-04-24T02:32:58;11.50;99.90
21508;DHT22;10915;54.352;9.074;2023-04-24T02:35:23;11.50;99.90
21508;DHT22;10915;54.352;9.074;2023-04-24T02:37:49;11.50;99.90
21508;DHT22;10915;54.352;9.074;2023-04-24T02:40:15;11.50;99.90
21508;DHT22;10915;54.352;9.074;2023-04-24T02:42:40;11.60;99.90
21508;DHT22;10915;54.352;9.074;2023-04-24T02:45:06;11.60;99.90
21508;DHT22;10915;54.352;9.074;2023-04-24T02:47:32;11.50;99.90
21508;DHT22;10915;54.352;9.074;2023-04-24T02:49:58;11.60;99.90
21508;DHT22;10915;54.352;9.074;2023-04-24T02:52:23;11.60;99.90
21508;DHT22;10915;54.352;9.074;2023-04-24T02:54:49;11.70;99.90
21508;DHT22;10915;54.352;9.074;2023-04-24T02:57:14;11.70;99.90
21508;DHT22;10915;54.352;9.074;2023-04-24T02:59:40;11.70;99.90
21508;DHT22;10915;54.352;9.074;2023-04-24T03:02:06;11.60;99.90
21508;DHT22;10915;54.352;9.074;2023-04-24T03:04:31;11.70;99.90
21508;DHT22;10915;54.352;9.074;2023-04-24T03:06:57;11.60;99.90
21508;DHT22;10915;54.352;9.074;2023-04-24T03:09:24;11.60;99.90
21508;DHT22;10915;54.352;9.074;2023-04-24T03:11:49;11.60;99.90
21508;DHT22;10915;54.352;9.074;2023-04-24T03:14:15;11.60;99.90
21508;DHT22;10915;54.352;9.074;2023-04-24T03:16:41;11.50;99.90
21508;DHT22;10915;54.352;9.074;2023-04-24T03:19:07;11.60;99.90
21508;DHT22;10915;54.352;9.074;2023-04-24T03:21:33;11.60;99.90
21508;DHT22;10915;54.352;9.074;2023-04-24T03:23:58;11.50;99.90
21508;DHT22;10915;54.352;9.074;2023-04-24T03:26:24;11.50;99.90
21508;DHT22;10915;54.352;9.074;2023-04-24T03:28:50;11.40;99.90
21508;DHT22;10915;54.352;9.074;2023-04-24T03:31:15;11.40;99.90
21508;DHT22;10915;54.352;9.074;2023-04-24T03:33:42;11.40;99.90
21508;DHT22;10915;54.352;9.074;2023-04-24T03:36:08;11.40;99.90
21508;DHT22;10915;54.352;9.074;2023-04-24T03:38:33;11.30;99.90
21508;DHT22;10915;54.352;9.074;2023-04-24T03:40:59;11.40;99.90
21508;DHT22;10915;54.352;9.074;2023-04-24T03:43:24;11.40;99.90
21508;DHT22;10915;54.352;9.074;2023-04-24T03:45:52;11.40;99.90
21508;DHT22;10915;54.352;9.074;2023-04-24T03:48:18;11.30;99.90
21508;DHT22;10915;54.352;9.074;2023-04-24T03:50:44;11.30;99.90
21508;DHT22;10915;54.352;9.074;2023-04-24T03:53:09;11.30;99.90
21508;DHT22;10915;54.352;9.074;2023-04-24T03:55:35;11.30;99.90
21508;DHT22;10915;54.352;9.074;2023-04-24T03:58:05;11.20;99.90
21508;DHT22;10915;54.352;9.074;2023-04-24T04:00:34;11.20;99.90
21508;DHT22;10915;54.352;9.074;2023-04-24T04:03:00;11.20;99.90
21508;DHT22;10915;54.352;9.074;2023-04-24T04:05:25;11.10;99.90
21508;DHT22;10915;54.352;9.074;2023-04-24T04:07:51;11.10;99.90
21508;DHT22;10915;54.352;9.074;2023-04-24T04:10:16;11.00;99.90
21508;DHT22;10915;54.352;9.074;2023-04-24T04:12:42;11.00;99.90
21508;DHT22;10915;54.352;9.074;2023-04-24T04:15:08;11.10;99.90
21508;DHT22;10915;54.352;9.074;2023-04-24T04:17:34;11.00;99.90
21508;DHT22;10915;54.352;9.074;2023-04-24T04:20:00;11.10;99.90
21508;DHT22;10915;54.352;9.074;2023-04-24T04:22:26;11.00;99.90
21508;DHT22;10915;54.352;9.074;2023-04-24T04:24:51;11.10;99.90
21508;DHT22;10915;54.352;9.074;2023-04-24T04:27:17;11.10;99.90
21508;DHT22;10915;54.352;9.074;2023-04-24T04:29:44;11.10;99.90
21508;DHT22;10915;54.352;9.074;2023-04-24T04:32:09;11.20;99.90
21508;DHT22;10915;54.352;9.074;2023-04-24T04:34:35;11.10;99.90
21508;DHT22;10915;54.352;9.074;2023-04-24T04:37:03;11.00;99.90
21508;DHT22;10915;54.352;9.074;2023-04-24T04:39:29;11.00;99.90
21508;DHT22;10915;54.352;9.074;2023-04-24T04:41:56;11.10;99.90
21508;DHT22;10915;54.352;9.074;2023-04-24T04:44:21;11.10;99.90
21508;DHT22;10915;54.352;9.074;2023-04-24T04:46:47;11.00;99.90
21508;DHT22;10915;54.352;9.074;2023-04-24T04:49:13;11.10;99.90
21508;DHT22;10915;54.352;9.074;2023-04-24T04:51:42;11.00;99.90
21508;DHT22;10915;54.352;9.074;2023-04-24T04:54:07;11.00;99.90
21508;DHT22;10915;54.352;9.074;2023-04-24T04:56:33;11.00;99.90
21508;DHT22;10915;54.352;9.074;2023-04-24T04:58:59;11.00;99.90
21508;DHT22;10915;54.352;9.074;2023-04-24T05:01:25;10.90;99.90
21508;DHT22;10915;54.352;9.074;2023-04-24T05:03:52;11.00;99.90
21508;DHT22;10915;54.352;9.074;2023-04-24T05:06:18;11.00;99.90
21508;DHT22;10915;54.352;9.074;2023-04-24T05:08:44;11.00;99.90
21508;DHT22;10915;54.352;9.074;2023-04-24T05:11:10;11.00;99.90
21508;DHT22;10915;54.352;9.074;2023-04-24T05:13:35;11.00;99.90
21508;DHT22;10915;54.352;9.074;2023-04-24T05:16:01;11.00;99.90
21508;DHT22;10915;54.352;9.074;2023-04-24T05:18:26;11.00;99.90
21508;DHT22;10915;54.352;9.074;2023-04-24T05:20:52;11.00;99.90
21508;DHT22;10915;54.352;9.074;2023-04-24T05:23:17;10.90;99.90
21508;DHT22;10915;54.352;9.074;2023-04-24T05:25:43;11.00;99.90
21508;DHT22;10915;54.352;9.074;2023-04-24T05:28:09;11.00;99.90
21508;DHT22;10915;54.352;9.074;2023-04-24T05:30:34;10.90;99.90
21508;DHT22;10915;54.352;9.074;2023-04-24T05:33:00;10.90;99.90
21508;DHT22;10915;54.352;9.074;2023-04-24T05:35:25;11.00;99.90
21508;DHT22;10915;54.352;9.074;2023-04-24T05:37:51;11.00;99.90
21508;DHT22;10915;54.352;9.074;2023-04-24T05:40:17;11.10;99.90
21508;DHT22;10915;54.352;9.074;2023-04-24T05:42:42;11.10;99.90
21508;DHT22;10915;54.352;9.074;2023-04-24T05:45:08;11.10;99.90
21508;DHT22;10915;54.352;9.074;2023-04-24T05:47:36;11.10;99.90
21508;DHT22;10915;54.352;9.074;2023-04-24T05:50:02;11.10;99.90
21508;DHT22;10915;54.352;9.074;2023-04-24T05:52:28;11.10;99.90
21508;DHT22;10915;54.352;9.074;2023-04-24T05:54:53;11.10;99.90
21508;DHT22;10915;54.352;9.074;2023-04-24T05:57:19;11.10;99.90
21508;DHT22;10915;54.352;9.074;2023-04-24T05:59:45;11.10;99.90
21508;DHT22;10915;54.352;9.074;2023-04-24T06:02:10;11.20;99.90
21508;DHT22;10915;54.352;9.074;2023-04-24T06:04:36;11.30;99.90
21508;DHT22;10915;54.352;9.074;2023-04-24T06:07:01;11.30;99.90
21508;DHT22;10915;54.352;9.074;2023-04-24T06:09:28;11.30;99.90
21508;DHT22;10915;54.352;9.074;2023-04-24T06:11:54;11.40;99.90
21508;DHT22;10915;54.352;9.074;2023-04-24T06:14:20;11.30;99.90
21508;DHT22;10915;54.352;9.074;2023-04-24T06:16:46;11.30;99.90
21508;DHT22;10915;54.352;9.074;2023-04-24T06:19:12;11.30;99.90
21508;DHT22;10915;54.352;9.074;2023-04-24T06:21:37;11.40;99.90
21508;DHT22;10915;54.352;9.074;2023-04-24T06:24:03;11.40;99.90
21508;DHT22;10915;54.352;9.074;2023-04-24T06:26:30;11.40;99.90
21508;DHT22;10915;54.352;9.074;2023-04-24T06:28:56;11.40;99.90
21508;DHT22;10915;54.352;9.074;2023-04-24T06:31:21;11.30;99.90
21508;DHT22;10915;54.352;9.074;2023-04-24T06:33:48;11.20;99.90
21508;DHT22;10915;54.352;9.074;2023-04-24T06:36:14;11.20;99.90
21508;DHT22;10915;54.352;9.074;2023-04-24T06:38:41;11.30;99.90
21508;DHT22;10915;54.352;9.074;2023-04-24T06:41:06;11.30;99.90
21508;DHT22;10915;54.352;9.074;2023-04-24T06:43:33;11.30;99.90
21508;DHT22;10915;54.352;9.074;2023-04-24T06:45:59;11.30;99.90
21508;DHT22;10915;54.352;9.074;2023-04-24T06:48:25;11.20;99.90
21508;DHT22;10915;54.352;9.074;2023-04-24T06:50:51;11.30;99.90
21508;DHT22;10915;54.352;9.074;2023-04-24T06:53:17;11.30;99.90
21508;DHT22;10915;54.352;9.074;2023-04-24T06:55:43;11.30;99.90
21508;DHT22;10915;54.352;9.074;2023-04-24T06:58:11;11.30;99.90
21508;DHT22;10915;54.352;9.074;2023-04-24T07:00:37;11.40;99.90
21508;DHT22;10915;54.352;9.074;2023-04-24T07:03:03;11.40;99.90
21508;DHT22;10915;54.352;9.074;2023-04-24T07:05:30;11.40;99.90
21508;DHT22;10915;54.352;9.074;2023-04-24T07:07:56;11.40;99.90
21508;DHT22;10915;54.352;9.074;2023-04-24T07:10:24;11.30;99.90
21508;DHT22;10915;54.352;9.074;2023-04-24T07:12:50;11.30;99.90
21508;DHT22;10915;54.352;9.074;2023-04-24T07:15:15;11.30;99.90
21508;DHT22;10915;54.352;9.074;2023-04-24T07:17:41;11.20;99.90
21508;DHT22;10915;54.352;9.074;2023-04-24T07:20:10;11.30;99.90
21508;DHT22;10915;54.352;9.074;2023-04-24T07:22:37;11.30;99.90
21508;DHT22;10915;54.352;9.074;2023-04-24T07:25:04;11.30;99.90
21508;DHT22;10915;54.352;9.074;2023-04-24T07:27:30;11.30;99.90
21508;DHT22;10915;54.352;9.074;2023-04-24T07:29:55;11.40;99.90
21508;DHT22;10915;54.352;9.074;2023-04-24T07:32:21;11.50;99.90
21508;DHT22;10915;54.352;9.074;2023-04-24T07:34:47;11.60;99.90
21508;DHT22;10915;54.352;9.074;2023-04-24T07:37:12;11.60;99.90
21508;DHT22;10915;54.352;9.074;2023-04-24T07:39:38;11.70;99.90
21508;DHT22;10915;54.352;9.074;2023-04-24T07:42:04;11.70;99.90
21508;DHT22;10915;54.352;9.074;2023-04-24T07:44:29;11.70;99.90
21508;DHT22;10915;54.352;9.074;2023-04-24T07:46:56;11.70;99.90
21508;DHT22;10915;54.352;9.074;2023-04-24T07:49:21;11.70;99.90
21508;DHT22;10915;54.352;9.074;2023-04-24T07:51:47;11.70;99.90
21508;DHT22;10915;54.352;9.074;2023-04-24T07:54:13;11.70;99.90
21508;DHT22;10915;54.352;9.074;2023-04-24T07:56:38;11.70;99.90
21508;DHT22;10915;54.352;9.074;2023-04-24T07:59:05;11.90;99.90
21508;DHT22;10915;54.352;9.074;2023-04-24T08:01:30;11.90;99.90
21508;DHT22;10915;54.352;9.074;2023-04-24T08:03:56;11.90;99.90
21508;DHT22;10915;54.352;9.074;2023-04-24T08:06:22;11.90;99.90
21508;DHT22;10915;54.352;9.074;2023-04-24T08:08:47;12.00;99.90
21508;DHT22;10915;54.352;9.074;2023-04-24T08:11:13;12.00;99.90
21508;DHT22;10915;54.352;9.074;2023-04-24T08:13:38;12.00;99.90
21508;DHT22;10915;54.352;9.074;2023-04-24T08:16:04;12.00;99.90
21508;DHT22;10915;54.352;9.074;2023-04-24T08:18:30;12.00;99.90
21508;DHT22;10915;54.352;9.074;2023-04-24T08:20:56;12.00;99.90
21508;DHT22;10915;54.352;9.074;2023-04-24T08:23:26;11.90;99.90
21508;DHT22;10915;54.352;9.074;2023-04-24T08:25:52;11.90;99.90
21508;DHT22;10915;54.352;9.074;2023-04-24T08:28:17;12.00;99.90
21508;DHT22;10915;54.352;9.074;2023-04-24T08:30:45;12.10;99.90
21508;DHT22;10915;54.352;9.074;2023-04-24T08:33:13;12.20;99.90
21508;DHT22;10915;54.352;9.074;2023-04-24T08:35:38;12.30;99.90
21508;DHT22;10915;54.352;9.074;2023-04-24T08:38:04;12.30;99.90
21508;DHT22;10915;54.352;9.074;2023-04-24T08:40:34;12.40;99.90
21508;DHT22;10915;54.352;9.074;2023-04-24T08:43:00;12.40;99.90
21508;DHT22;10915;54.352;9.074;2023-04-24T08:45:26;12.50;99.90
21508;DHT22;10915;54.352;9.074;2023-04-24T08:47:55;12.50;99.90
21508;DHT22;10915;54.352;9.074;2023-04-24T08:50:24;12.50;99.90
21508;DHT22;10915;54.352;9.074;2023-04-24T08:52:51;12.40;99.90
21508;DHT22;10915;54.352;9.074;2023-04-24T08:55:19;12.40;99.90
21508;DHT22;10915;54.352;9.074;2023-04-24T08:57:52;12.40;99.90
21508;DHT22;10915;54.352;9.074;2023-04-24T09:00:21;12.40;99.90
21508;DHT22;10915;54.352;9.074;2023-04-24T09:02:49;12.30;99.90
21508;DHT22;10915;54.352;9.074;2023-04-24T09:05:17;12.30;99.90
21508;DHT22;10915;54.352;9.074;2023-04-24T09:07:46;12.20;99.90
21508;DHT22;10915;54.352;9.074;2023-04-24T09:10:13;12.20;99.90
21508;DHT22;10915;54.352;9.074;2023-04-24T09:12:39;12.20;99.90
21508;DHT22;10915;54.352;9.074;2023-04-24T09:15:07;12.20;99.90
21508;DHT22;10915;54.352;9.074;2023-04-24T09:17:33;12.20;99.90
21508;DHT22;10915;54.352;9.074;2023-04-24T09:19:59;12.30;99.90
21508;DHT22;10915;54.352;9.074;2023-04-24T09:22:25;12.30;99.90
21508;DHT22;10915;54.352;9.074;2023-04-24T09:25:06;12.40;99.90
21508;DHT22;10915;54.352;9.074;2023-04-24T09:27:33;12.60;99.90
21508;DHT22;10915;54.352;9.074;2023-04-24T09:29:59;12.90;99.90
21508;DHT22;10915;54.352;9.074;2023-04-24T09:32:25;13.20;99.90
21508;DHT22;10915;54.352;9.074;2023-04-24T09:35:13;13.40;99.90
21508;DHT22;10915;54.352;9.074;2023-04-24T09:37:41;13.80;99.90
21508;DHT22;10915;54.352;9.074;2023-04-24T09:40:19;14.00;99.90
21508;DHT22;10915;54.352;9.074;2023-04-24T09:42:50;14.20;99.90
21508;DHT22;10915;54.352;9.074;2023-04-24T09:45:16;14.00;99.90
21508;DHT22;10915;54.352;9.074;2023-04-24T09:47:42;13.80;99.90
21508;DHT22;10915;54.352;9.074;2023-04-24T09:50:12;13.70;99.90
21508;DHT22;10915;54.352;9.074;2023-04-24T09:53:05;13.60;99.90
21508;DHT22;10915;54.352;9.074;2023-04-24T09:55:39;13.50;99.90
21508;DHT22;10915;54.352;9.074;2023-04-24T09:58:08;13.40;99.90
21508;DHT22;10915;54.352;9.074;2023-04-24T10:00:34;13.30;99.90
21508;DHT22;10915;54.352;9.074;2023-04-24T10:03:00;13.20;99.90
21508;DHT22;10915;54.352;9.074;2023-04-24T10:05:30;13.10;99.90
21508;DHT22;10915;54.352;9.074;2023-04-24T10:08:03;13.00;99.90
21508;DHT22;10915;54.352;9.074;2023-04-24T10:10:30;12.80;99.90
21508;DHT22;10915;54.352;9.074;2023-04-24T10:12:56;12.80;99.90
21508;DHT22;10915;54.352;9.074;2023-04-24T10:15:22;12.80;99.90
21508;DHT22;10915;54.352;9.074;2023-04-24T10:17:49;12.80;99.90
21508;DHT22;10915;54.352;9.074;2023-04-24T10:20:23;12.70;99.90
21508;DHT22;10915;54.352;9.074;2023-04-24T10:22:52;12.80;99.90
21508;DHT22;10915;54.352;9.074;2023-04-24T10:25:31;12.80;99.90
21508;DHT22;10915;54.352;9.074;2023-04-24T10:27:59;12.90;99.90
21508;DHT22;10915;54.352;9.074;2023-04-24T10:30:26;12.80;99.90
21508;DHT22;10915;54.352;9.074;2023-04-24T10:32:52;12.80;99.90
21508;DHT22;10915;54.352;9.074;2023-04-24T10:35:19;12.80;99.90
21508;DHT22;10915;54.352;9.074;2023-04-24T10:37:57;12.70;99.90
21508;DHT22;10915;54.352;9.074;2023-04-24T10:40:31;12.70;99.90
21508;DHT22;10915;54.352;9.074;2023-04-24T10:42:57;12.70;99.90
21508;DHT22;10915;54.352;9.074;2023-04-24T10:45:23;12.60;99.90
21508;DHT22;10915;54.352;9.074;2023-04-24T10:47:57;12.50;99.90
21508;DHT22;10915;54.352;9.074;2023-04-24T10:50:25;12.60;99.90
21508;DHT22;10915;54.352;9.074;2023-04-24T10:52:51;12.70;99.90
21508;DHT22;10915;54.352;9.074;2023-04-24T10:55:41;12.70;99.90
21508;DHT22;10915;54.352;9.074;2023-04-24T10:58:08;12.70;99.90
21508;DHT22;10915;54.352;9.074;2023-04-24T11:00:36;12.70;99.90
21508;DHT22;10915;54.352;9.074;2023-04-24T11:03:05;12.70;99.90
21508;DHT22;10915;54.352;9.074;2023-04-24T11:06:09;12.70;99.90
21508;DHT22;10915;54.352;9.074;2023-04-24T11:08:45;12.70;99.90
21508;DHT22;10915;54.352;9.074;2023-04-24T11:11:18;12.80;99.90
21508;DHT22;10915;54.352;9.074;2023-04-24T11:16:25;12.90;99.90
21508;DHT22;10915;54.352;9.074;2023-04-24T11:19:21;13.00;99.90
21508;DHT22;10915;54.352;9.074;2023-04-24T11:22:13;12.90;99.90
21508;DHT22;10915;54.352;9.074;2023-04-24T11:24:49;12.70;99.90
21508;DHT22;10915;54.352;9.074;2023-04-24T11:27:19;12.60;99.90
21508;DHT22;10915;54.352;9.074;2023-04-24T11:35:01;12.40;99.90
21508;DHT22;10915;54.352;9.074;2023-04-24T11:37:29;12.40;99.90
21508;DHT22;10915;54.352;9.074;2023-04-24T11:39:57;12.40;99.90
21508;DHT22;10915;54.352;9.074;2023-04-24T11:42:23;12.20;99.90
21508;DHT22;10915;54.352;9.074;2023-04-24T11:44:52;12.20;99.90
21508;DHT22;10915;54.352;9.074;2023-04-24T11:47:18;12.20;99.90
21508;DHT22;10915;54.352;9.074;2023-04-24T11:49:43;12.10;99.90
21508;DHT22;10915;54.352;9.074;2023-04-24T11:52:09;11.90;99.90
21508;DHT22;10915;54.352;9.074;2023-04-24T11:54:36;11.90;99.90
21508;DHT22;10915;54.352;9.074;2023-04-24T11:57:04;11.90;99.90
21508;DHT22;10915;54.352;9.074;2023-04-24T11:59:35;11.90;99.90
21508;DHT22;10915;54.352;9.074;2023-04-24T12:02:02;11.90;99.90
21508;DHT22;10915;54.352;9.074;2023-04-24T12:04:41;11.90;99.90
21508;DHT22;10915;54.352;9.074;2023-04-24T12:07:07;12.00;99.90
21508;DHT22;10915;54.352;9.074;2023-04-24T12:09:47;12.00;99.90
21508;DHT22;10915;54.352;9.074;2023-04-24T12:12:15;12.00;99.90
21508;DHT22;10915;54.352;9.074;2023-04-24T12:14:48;11.90;99.90
21508;DHT22;10915;54.352;9.074;2023-04-24T12:17:15;12.00;99.90
21508;DHT22;10915;54.352;9.074;2023-04-24T12:19:46;12.00;99.90
21508;DHT22;10915;54.352;9.074;2023-04-24T12:22:12;12.00;99.90
21508;DHT22;10915;54.352;9.074;2023-04-24T12:24:56;12.10;99.90
21508;DHT22;10915;54.352;9.074;2023-04-24T12:27:22;12.20;99.90
21508;DHT22;10915;54.352;9.074;2023-04-24T12:29:52;12.20;99.90
21508;DHT22;10915;54.352;9.074;2023-04-24T12:32:18;12.40;99.90
21508;DHT22;10915;54.352;9.074;2023-04-24T12:34:44;12.40;99.90
21508;DHT22;10915;54.352;9.074;2023-04-24T12:37:11;12.50;99.90
21508;DHT22;10915;54.352;9.074;2023-04-24T12:39:37;12.50;99.90
21508;DHT22;10915;54.352;9.074;2023-04-24T12:42:03;12.50;99.90
21508;DHT22;10915;54.352;9.074;2023-04-24T12:44:33;12.40;99.90
21508;DHT22;10915;54.352;9.074;2023-04-24T12:47:00;12.40;99.90
21508;DHT22;10915;54.352;9.074;2023-04-24T12:49:27;12.40;99.90
21508;DHT22;10915;54.352;9.074;2023-04-24T12:51:53;12.40;99.90
21508;DHT22;10915;54.352;9.074;2023-04-24T12:54:19;12.40;99.90
21508;DHT22;10915;54.352;9.074;2023-04-24T12:56:45;12.40;99.90
21508;DHT22;10915;54.352;9.074;2023-04-24T12:59:10;12.50;99.90
21508;DHT22;10915;54.352;9.074;2023-04-24T13:01:36;12.60;99.90
21508;DHT22;10915;54.352;9.074;2023-04-24T13:04:02;12.60;99.90
21508;DHT22;10915;54.352;9.074;2023-04-24T13:06:27;12.60;99.90
21508;DHT22;10915;54.352;9.074;2023-04-24T13:08:53;12.60;99.90
21508;DHT22;10915;54.352;9.074;2023-04-24T13:11:20;12.60;99.90
21508;DHT22;10915;54.352;9.074;2023-04-24T13:13:47;12.60;99.90
21508;DHT22;10915;54.352;9.074;2023-04-24T13:16:13;12.60;99.90
21508;DHT22;10915;54.352;9.074;2023-04-24T13:18:38;12.40;99.90
21508;DHT22;10915;54.352;9.074;2023-04-24T13:21:04;12.30;99.90
21508;DHT22;10915;54.352;9.074;2023-04-24T13:23:30;12.30;99.90
21508;DHT22;10915;54.352;9.074;2023-04-24T13:25:55;12.30;99.90
21508;DHT22;10915;54.352;9.074;2023-04-24T13:28:24;12.20;99.90
21508;DHT22;10915;54.352;9.074;2023-04-24T13:30:50;12.30;99.90
21508;DHT22;10915;54.352;9.074;2023-04-24T13:33:16;12.30;99.90
21508;DHT22;10915;54.352;9.074;2023-04-24T13:35:42;12.20;99.90
21508;DHT22;10915;54.352;9.074;2023-04-24T13:38:07;12.20;99.90
21508;DHT22;10915;54.352;9.074;2023-04-24T13:40:33;12.10;99.90
21508;DHT22;10915;54.352;9.074;2023-04-24T13:42:59;12.10;99.90
21508;DHT22;10915;54.352;9.074;2023-04-24T13:45:25;12.10;99.90
21508;DHT22;10915;54.352;9.074;2023-04-24T13:47:51;12.00;99.90
21508;DHT22;10915;54.352;9.074;2023-04-24T13:50:17;12.00;99.90
21508;DHT22;10915;54.352;9.074;2023-04-24T13:52:43;11.90;99.90
21508;DHT22;10915;54.352;9.074;2023-04-24T13:55:08;11.90;99.90
21508;DHT22;10915;54.352;9.074;2023-04-24T13:57:34;11.90;99.90
21508;DHT22;10915;54.352;9.074;2023-04-24T14:00:00;11.90;99.90
21508;DHT22;10915;54.352;9.074;2023-04-24T14:02:29;11.90;99.90
21508;DHT22;10915;54.352;9.074;2023-04-24T14:04:54;11.90;99.90
21508;DHT22;10915;54.352;9.074;2023-04-24T14:07:20;11.80;99.90
21508;DHT22;10915;54.352;9.074;2023-04-24T14:09:46;11.80;99.90
21508;DHT22;10915;54.352;9.074;2023-04-24T14:12:11;11.80;99.90
21508;DHT22;10915;54.352;9.074;2023-04-24T14:14:38;11.70;99.90
21508;DHT22;10915;54.352;9.074;2023-04-24T14:17:03;11.60;99.90
21508;DHT22;10915;54.352;9.074;2023-04-24T14:19:29;11.60;99.90
21508;DHT22;10915;54.352;9.074;2023-04-24T14:21:54;11.50;99.90
21508;DHT22;10915;54.352;9.074;2023-04-24T14:24:22;11.40;99.90
21508;DHT22;10915;54.352;9.074;2023-04-24T14:26:47;11.30;99.90
21508;DHT22;10915;54.352;9.074;2023-04-24T14:29:13;11.30;99.90
21508;DHT22;10915;54.352;9.074;2023-04-24T14:31:38;11.20;99.90
21508;DHT22;10915;54.352;9.074;2023-04-24T14:34:04;11.10;99.90
21508;DHT22;10915;54.352;9.074;2023-04-24T14:36:30;11.10;99.90
21508;DHT22;10915;54.352;9.074;2023-04-24T14:38:56;11.10;99.90
21508;DHT22;10915;54.352;9.074;2023-04-24T14:41:22;11.00;99.90
21508;DHT22;10915;54.352;9.074;2023-04-24T14:43:48;11.00;99.90
21508;DHT22;10915;54.352;9.074;2023-04-24T14:46:13;11.00;99.90
21508;DHT22;10915;54.352;9.074;2023-04-24T14:48:39;11.00;99.90
21508;DHT22;10915;54.352;9.074;2023-04-24T14:51:04;11.00;99.90
21508;DHT22;10915;54.352;9.074;2023-04-24T14:53:30;11.00;99.90
21508;DHT22;10915;54.352;9.074;2023-04-24T14:55:56;11.00;99.90
21508;DHT22;10915;54.352;9.074;2023-04-24T14:58:21;11.00;99.90
21508;DHT22;10915;54.352;9.074;2023-04-24T15:00:47;10.90;99.90
21508;DHT22;10915;54.352;9.074;2023-04-24T15:03:18;10.90;99.90
21508;DHT22;10915;54.352;9.074;2023-04-24T15:05:44;10.90;99.90
21508;DHT22;10915;54.352;9.074;2023-04-24T15:08:09;10.80;99.90
21508;DHT22;10915;54.352;9.074;2023-04-24T15:10:35;10.70;99.90
21508;DHT22;10915;54.352;9.074;2023-04-24T15:13:01;10.70;99.90
21508;DHT22;10915;54.352;9.074;2023-04-24T15:15:26;10.70;99.90
21508;DHT22;10915;54.352;9.074;2023-04-24T15:17:52;10.60;99.90
21508;DHT22;10915;54.352;9.074;2023-04-24T15:20:18;10.50;99.90
21508;DHT22;10915;54.352;9.074;2023-04-24T15:22:43;10.50;99.90
21508;DHT22;10915;54.352;9.074;2023-04-24T15:25:10;10.50;99.90
21508;DHT22;10915;54.352;9.074;2023-04-24T15:27:43;10.50;99.90
21508;DHT22;10915;54.352;9.074;2023-04-24T15:30:09;10.40;99.90
21508;DHT22;10915;54.352;9.074;2023-04-24T15:32:36;10.30;99.90
21508;DHT22;10915;54.352;9.074;2023-04-24T15:35:01;10.40;99.90
21508;DHT22;10915;54.352;9.074;2023-04-24T15:37:27;10.30;99.90